Time;durP1;ratioP1;P1;durP2;ratioP2;P2;SDS_P1;SDS_P2;PMS_P1;PMS_P2;Temp;Humidity;BMP_temperature;BMP_pressure;BME280_temperature;BME280_humidity;BME280_pressure;Samples;Min_cycle;Max_cycle;Signal;HPM_P1;HPM_P2
2022/12/17 13:06:49;;;;;;;2.03;1.00;;;;;;;1.66;76.47;102708.31;5090758;27;97254;-32
2022/12/17 13:09:14;;;;;;;3.13;2.25;;;;;;;1.66;77.66;102710.09;5075054;27;97088;-31
2022/12/17 13:11:45;;;;;;;2.35;1.67;;;;;;;1.36;78.03;102705.44;5096318;27;96840;-31
2022/12/17 13:14:27;;;;;;;1.08;1.02;;;;;;;1.02;80.27;102699.88;5077807;27;101475;-31
2022/12/17 13:16:56;;;;;;;4.53;3.20;;;;;;;1.51;80.25;102710.91;5077696;27;100612;-31
2022/12/17 13:19:31;;;;;;;1.90;1.38;;;;;;;2.57;75.18;102703.28;5077685;27;96807;-31
2022/12/17 13:22:28;;;;;;;5.50;1.88;;;;;;;3.04;72.64;102693.50;5096129;27;96807;-31
2022/12/17 13:25:07;;;;;;;6.43;1.45;;;;;;;3.01;72.21;102682.81;5095033;27;97927;-31
2022/12/17 13:27:33;;;;;;;2.05;1.80;;;;;;;3.32;72.01;102678.31;5096413;27;97565;-31
2022/12/17 13:30:16;;;;;;;1.27;0.95;;;;;;;2.76;72.67;102672.09;5096468;27;96515;-32
2022/12/17 13:33:27;;;;;;;2.35;1.85;;;;;;;1.94;74.02;102676.41;5096069;27;96941;-31
2022/12/17 13:36:01;;;;;;;1.02;1.00;;;;;;;1.51;76.65;102673.53;5062315;27;97656;-31
2022/12/17 13:38:50;;;;;;;1.00;0.82;;;;;;;1.12;78.40;102676.81;5096187;27;97800;-32
2022/12/17 13:41:25;;;;;;;2.72;2.00;;;;;;;0.79;79.86;102681.03;5077243;27;96631;-31
2022/12/17 13:43:56;;;;;;;2.03;1.45;;;;;;;0.65;80.87;102680.91;5096192;27;96454;-31
2022/12/17 13:46:27;;;;;;;7.28;2.72;;;;;;;0.52;81.90;102681.66;5095791;27;97889;-33
2022/12/17 13:48:55;;;;;;;0.90;0.73;;;;;;;0.28;82.46;102693.84;5077032;27;103273;-32
2022/12/17 13:51:21;;;;;;;1.80;1.70;;;;;;;0.19;83.54;102697.34;5077417;27;96627;-32
2022/12/17 13:53:54;;;;;;;2.67;2.45;;;;;;;0.15;84.01;102691.94;5077692;27;96687;-31
2022/12/17 13:56:24;;;;;;;3.42;2.80;;;;;;;0.18;84.32;102697.31;5095489;27;97982;-32
2022/12/17 13:58:52;;;;;;;1.95;1.67;;;;;;;0.17;84.46;102692.88;5076865;27;101222;-31
2022/12/17 14:01:17;;;;;;;2.70;2.45;;;;;;;0.39;83.82;102689.53;5076427;27;96636;-32
2022/12/17 14:03:49;;;;;;;2.35;2.00;;;;;;;0.54;83.04;102694.13;5095895;27;96868;-32
2022/12/17 14:06:14;;;;;;;;;;;;;;;0.49;82.81;102694.97;5077139;27;103022;-31
2022/12/17 14:08:40;;;;;;;0.50;0.50;;;;;;;0.54;82.52;102695.91;5095895;27;97620;-31
2022/12/17 14:13:50;;;;;;;2.67;1.67;;;;;;;0.74;82.01;102690.75;5094945;27;96563;-31
2022/12/17 14:16:17;;;;;;;2.70;2.05;;;;;;;0.75;81.68;102696.09;5095375;27;97888;-32
2022/12/17 14:18:48;;;;;;;1.70;1.60;;;;;;;0.84;81.56;102706.84;5076246;27;100591;-32
2022/12/17 14:21:13;;;;;;;2.83;1.88;;;;;;;0.62;81.72;102707.53;5076908;27;96583;-31
2022/12/17 14:23:40;;;;;;;3.17;2.10;;;;;;;0.41;82.46;102705.56;5095585;27;96963;-31
2022/12/17 14:26:09;;;;;;;2.13;1.98;;;;;;;0.41;82.95;102705.56;5075305;27;100786;-32
2022/12/17 14:28:45;;;;;;;1.58;1.13;;;;;;;0.63;82.46;102714.66;5076510;27;101194;-31
2022/12/17 14:31:13;;;;;;;2.67;1.30;;;;;;;0.40;82.97;102727.75;5095097;27;96734;-32
2022/12/17 14:33:39;;;;;;;4.50;2.65;;;;;;;0.24;83.66;102718.69;5095485;27;96829;-31
2022/12/17 14:36:13;;;;;;;2.50;2.20;;;;;;;0.01;83.91;102731.75;5059796;27;100868;-31
2022/12/17 14:38:40;;;;;;;3.05;1.52;;;;;;;-0.14;84.57;102727.13;5095298;27;97866;-31
2022/12/17 14:43:59;;;;;;;3.05;2.75;;;;;;;-0.23;85.74;102727.00;5095949;27;96403;-31
2022/12/17 14:46:26;;;;;;;2.40;1.88;;;;;;;-0.22;85.36;102732.31;5076113;27;101056;-33
2022/12/17 14:49:00;;;;;;;1.20;1.10;;;;;;;-0.33;85.64;102733.97;5094678;27;99319;-31
2022/12/17 14:51:41;;;;;;;2.70;1.67;;;;;;;-0.48;86.18;102745.28;5094345;27;96445;-31
2022/12/17 14:54:17;;;;;;;3.40;2.50;;;;;;;-0.61;86.58;102745.97;5076082;27;96840;-31
2022/12/17 14:56:43;;;;;;;1.67;1.48;;;;;;;-0.72;87.19;102743.13;5094549;27;98987;-31
2022/12/17 14:59:25;;;;;;;2.50;1.88;;;;;;;-0.79;87.48;102751.88;5076068;27;101272;-31
2022/12/17 15:01:54;;;;;;;3.83;1.60;;;;;;;-0.84;87.75;102744.72;5076154;27;96687;-32
2022/12/17 15:04:20;;;;;;;2.53;2.30;;;;;;;-0.83;87.70;102750.06;5094389;27;96717;-32
2022/12/17 15:06:46;;;;;;;7.07;2.65;;;;;;;-0.86;87.90;102756.22;5075827;27;100756;-31
2022/12/17 15:09:12;;;;;;;2.00;1.73;;;;;;;-0.96;88.49;102756.03;5094908;27;97931;-32
2022/12/17 15:11:38;;;;;;;0.80;0.75;;;;;;;-1.02;88.46;102754.19;5094692;27;96581;-31
2022/12/17 15:14:03;;;;;;;1.90;1.20;;;;;;;-1.11;88.73;102748.69;5094571;27;96770;-32
2022/12/17 15:16:29;;;;;;;3.15;2.42;;;;;;;-1.15;89.01;102762.78;5093699;27;99725;-32
2022/12/17 15:18:55;;;;;;;2.15;1.55;;;;;;;-1.20;89.32;102765.38;5094094;27;97770;-33
2022/12/17 15:21:20;;;;;;;2.25;1.75;;;;;;;-1.24;90.07;102773.25;5094603;27;96518;-31
2022/12/17 15:23:47;;;;;;;2.35;1.55;;;;;;;-1.30;89.89;102769.63;5075831;27;96824;-31
2022/12/17 15:26:14;;;;;;;1.83;1.30;;;;;;;-1.36;90.10;102779.25;5075341;27;101071;-31
2022/12/17 15:28:40;;;;;;;3.30;1.38;;;;;;;-1.42;90.49;102779.16;5075709;27;100560;-31
2022/12/17 15:31:05;;;;;;;1.80;1.55;;;;;;;-1.49;90.63;102772.81;5074726;27;96539;-31
2022/12/17 15:33:30;;;;;;;2.35;1.98;;;;;;;-1.57;90.82;102775.31;5094803;27;96874;-31
2022/12/17 15:35:57;;;;;;;1.80;0.85;;;;;;;-1.59;91.10;102776.16;5094043;27;97916;-31
2022/12/17 15:38:22;;;;;;;3.17;2.03;;;;;;;-1.62;90.79;102787.63;5075366;27;100962;-31
2022/12/17 15:40:50;;;;;;;1.88;1.65;;;;;;;-1.64;91.26;102794.66;5074897;27;97441;-31
2022/12/17 15:43:16;;;;;;;2.72;1.90;;;;;;;-1.66;90.90;102795.50;5094233;27;96665;-31
2022/12/17 15:45:47;;;;;;;2.03;1.80;;;;;;;-1.74;91.47;102797.97;5094073;27;97912;-32
2022/12/17 15:48:15;;;;;;;2.83;2.07;;;;;;;-1.75;91.62;102801.50;5075011;27;100214;-31
2022/12/17 15:50:41;;;;;;;1.50;1.40;;;;;;;-1.79;91.77;102797.91;5075529;27;96681;-32
2022/12/17 15:53:07;;;;;;;0.40;0.40;;;;;;;-1.73;91.76;102810.41;5094126;27;96657;-31
2022/12/17 15:55:33;;;;;;;2.25;2.05;;;;;;;-1.72;91.81;102806.88;5093705;27;99221;-31
2022/12/17 15:57:58;;;;;;;1.95;1.80;;;;;;;-1.71;91.65;102809.56;5094049;27;99123;-31
2022/12/17 16:00:24;;;;;;;2.28;1.75;;;;;;;-1.69;91.50;102808.69;5093692;27;96632;-31
2022/12/17 16:02:49;;;;;;;1.70;1.17;;;;;;;-1.72;91.57;102809.53;5094011;27;96789;-33
2022/12/17 16:05:15;;;;;;;0.52;0.52;;;;;;;-1.80;91.74;102800.53;5093276;27;97954;-32
2022/12/17 16:07:42;;;;;;;1.00;0.85;;;;;;;-1.82;91.97;102803.13;5075094;27;100757;-31
2022/12/17 16:10:09;;;;;;;1.55;1.33;;;;;;;-1.86;92.10;102803.03;5093595;27;96653;-31
2022/12/17 16:12:34;;;;;;;1.05;0.75;;;;;;;-1.86;92.21;102800.38;5075034;27;96779;-33
2022/12/17 16:15:01;;;;;;;0.90;0.75;;;;;;;-1.92;92.21;102786.13;5093582;27;97958;-31
2022/12/17 16:17:26;;;;;;;2.55;1.98;;;;;;;-1.88;92.36;102791.47;5074614;27;100759;-31
2022/12/17 16:19:51;;;;;;;2.30;1.20;;;;;;;-1.85;92.71;102800.44;5093641;27;96548;-31
2022/12/17 16:22:17;;;;;;;0.85;0.80;;;;;;;-1.85;92.64;102795.13;5093887;27;96798;-32
2022/12/17 16:24:42;;;;;;;1.40;1.25;;;;;;;-1.93;92.57;102799.38;5093170;27;97048;-32
2022/12/17 16:27:07;;;;;;;2.83;2.25;;;;;;;-1.97;93.24;102802.81;5093089;27;99597;-32
2022/12/17 16:29:33;;;;;;;1.50;0.85;;;;;;;-1.99;93.01;102805.44;5074402;27;96830;-31
2022/12/17 16:31:59;;;;;;;4.55;3.28;;;;;;;-1.99;93.28;102816.06;5093331;27;96772;-31
2022/12/17 16:34:25;;;;;;;1.30;1.10;;;;;;;-1.98;93.23;102808.97;5074449;27;101071;-31
2022/12/17 16:36:51;;;;;;;1.52;1.23;;;;;;;-2.02;93.48;102816.00;5074756;27;101163;-31
2022/12/17 16:39:18;;;;;;;4.18;2.33;;;;;;;-2.06;93.78;102805.28;5093150;27;96760;-31
2022/12/17 16:41:44;;;;;;;3.50;1.55;;;;;;;-2.07;93.84;102814.06;5074988;27;96973;-31
2022/12/17 16:44:10;;;;;;;1.15;0.88;;;;;;;-2.06;93.79;102805.28;5096604;27;99980;-33
2022/12/17 16:46:38;;;;;;;1.40;1.27;;;;;;;-2.07;93.46;102807.03;5078355;27;101063;-31
2022/12/17 16:49:06;;;;;;;4.70;2.22;;;;;;;-2.08;93.60;102810.53;5096744;27;96513;-32
2022/12/17 16:51:31;;;;;;;2.63;2.15;;;;;;;-2.10;93.52;102814.91;5078175;27;96887;-32
2022/12/17 16:53:58;;;;;;;3.78;2.53;;;;;;;-2.16;93.68;102814.78;5077554;27;101332;-33
2022/12/17 16:56:27;;;;;;;3.38;1.73;;;;;;;-2.18;94.16;102817.41;5078089;27;101107;-31
2022/12/17 16:58:54;;;;;;;2.95;1.73;;;;;;;-2.24;94.65;102817.28;5078169;27;96604;-31
2022/12/17 17:01:21;;;;;;;1.92;1.30;;;;;;;-2.25;94.57;102809.25;5078129;27;96886;-33
2022/12/17 17:03:47;;;;;;;0.93;0.82;;;;;;;-2.21;94.64;102821.75;5077816;27;99308;-33
2022/12/17 17:06:13;;;;;;;1.90;1.77;;;;;;;-2.24;94.52;102822.59;5077750;27;100867;-31
2022/12/17 17:08:39;;;;;;;2.50;1.63;;;;;;;-2.23;94.61;102821.72;5096923;27;96467;-31
2022/12/17 17:11:11;;;;;;;0.93;0.90;;;;;;;-2.20;95.00;102826.19;5096890;27;96886;-31
2022/12/17 17:13:38;;;;;;;2.30;1.70;;;;;;;-2.20;94.63;102824.44;5077460;27;100948;-31
2022/12/17 17:16:04;;;;;;;2.22;1.73;;;;;;;-2.22;94.49;102820.84;5077739;27;101288;-31
2022/12/17 17:18:30;;;;;;;0.47;0.40;;;;;;;-2.26;94.89;102818.09;5077361;27;97331;-30
2022/12/17 17:21:14;;;;;;;0.55;0.55;;;;;;;-2.23;94.60;102824.38;5077584;27;96988;-31
2022/12/17 17:23:40;;;;;;;3.67;1.85;;;;;;;-2.23;94.54;102827.03;5077924;27;100653;-31
2022/12/17 17:26:05;;;;;;;3.05;1.42;;;;;;;-2.32;94.97;102821.50;5095383;27;99222;-31
2022/12/17 17:28:31;;;;;;;2.30;2.05;;;;;;;-2.36;95.20;102830.22;5096393;27;96398;-32
2022/12/17 17:31:06;;;;;;;2.92;2.28;;;;;;;-2.34;95.23;102831.16;5096276;27;96830;-32
2022/12/17 17:33:34;;;;;;;2.63;1.98;;;;;;;-2.33;95.02;102829.44;5077534;27;103064;-32
2022/12/17 17:36:10;;;;;;;1.63;1.50;;;;;;;-2.31;94.89;102836.56;5078128;27;100644;-32
2022/12/17 17:38:38;;;;;;;1.00;1.00;;;;;;;-2.30;94.88;102841.00;5077495;27;96635;-32
2022/12/17 17:41:05;;;;;;;0.50;0.47;;;;;;;-2.31;95.27;102835.66;5077362;27;96910;-31
2022/12/17 17:43:30;;;;;;;2.35;1.75;;;;;;;-2.29;95.07;102840.13;5076656;27;101804;-31
2022/12/17 17:46:18;;;;;;;1.45;1.33;;;;;;;-2.32;94.69;102837.41;5077197;27;100692;-32
2022/12/17 17:48:45;;;;;;;1.77;1.17;;;;;;;-2.39;94.45;102833.72;5095855;27;96596;-32
2022/12/17 17:51:19;;;;;;;1.40;0.93;;;;;;;-2.37;94.78;102836.41;5077105;27;96836;-32
2022/12/17 17:53:46;;;;;;;1.27;1.17;;;;;;;-2.33;95.05;102832.97;5095066;27;97666;-31
2022/12/17 17:56:15;;;;;;;0.47;0.47;;;;;;;-2.34;94.67;102831.16;5095657;27;97823;-32
2022/12/17 17:58:46;;;;;;;2.10;1.20;;;;;;;-2.39;94.70;102820.44;5077099;27;96736;-31
2022/12/17 18:01:14;;;;;;;4.88;3.22;;;;;;;-2.41;94.50;102814.22;5077455;27;96740;-32
2022/12/17 18:03:40;;;;;;;0.85;0.80;;;;;;;-2.46;94.53;102815.84;5076817;27;101004;-32
2022/12/17 18:06:07;;;;;;;0.68;0.68;;;;;;;-2.40;94.70;102826.63;5076944;27;101349;-30
2022/12/17 18:08:34;;;;;;;1.08;0.73;;;;;;;-2.41;94.42;102824.84;5095139;27;96554;-31
2022/12/17 18:11:01;;;;;;;0.40;0.40;;;;;;;-2.44;94.51;102829.16;5095704;27;96790;-31
2022/12/17 18:16:12;;;;;;;6.53;1.85;;;;;;;-2.57;94.08;102823.56;5095670;27;97042;-31
2022/12/17 18:18:37;;;;;;;2.10;1.60;;;;;;;-2.60;94.35;102818.19;5095519;27;96674;-32
2022/12/17 18:21:08;;;;;;;0.75;0.70;;;;;;;-2.56;94.14;102819.16;5095418;27;96784;-31
2022/12/17 18:23:34;;;;;;;0.50;0.50;;;;;;;-2.61;94.45;102819.03;5076673;27;101147;-31
2022/12/17 18:26:31;;;;;;;0.47;0.47;;;;;;;-2.58;94.38;102828.81;5076497;27;101341;-32
2022/12/17 18:29:03;;;;;;;0.52;0.52;;;;;;;-2.52;94.71;102825.44;5056194;27;96926;-31
2022/12/17 18:31:29;;;;;;;1.10;0.75;;;;;;;-2.54;94.75;102830.69;5095710;27;96531;-31
2022/12/17 18:33:59;;;;;;;1.90;1.70;;;;;;;-2.54;94.76;102840.41;5076017;27;100739;-32
2022/12/17 18:36:27;;;;;;;3.33;2.45;;;;;;;-2.56;94.56;102835.06;5076323;27;101186;-31
2022/12/17 18:38:57;;;;;;;1.35;1.23;;;;;;;-2.58;94.72;102837.66;5076388;27;96681;-31
2022/12/17 18:44:09;;;;;;;0.47;0.47;;;;;;;-2.66;94.86;102838.34;5093346;27;97122;-30
2022/12/17 18:46:34;;;;;;;0.82;0.82;;;;;;;-2.63;95.09;102833.13;5076297;27;101139;-31
2022/12/17 18:49:04;;;;;;;0.75;0.73;;;;;;;-2.60;95.31;102828.81;5095222;27;96549;-31
2022/12/17 18:51:30;;;;;;;2.05;1.58;;;;;;;-2.52;95.00;102849.31;5076509;27;96817;-31
2022/12/17 18:53:57;;;;;;;1.42;1.02;;;;;;;-2.50;94.51;102851.16;5094662;27;99231;-31
2022/12/17 18:56:22;;;;;;;1.92;1.75;;;;;;;-2.54;94.56;102853.69;5076000;27;101531;-31
2022/12/17 18:58:50;;;;;;;1.58;1.15;;;;;;;-2.56;94.21;102857.19;5094495;27;96482;-30
2022/12/17 19:01:23;;;;;;;0.52;0.52;;;;;;;-2.57;94.07;102857.16;5076234;27;96787;-31
2022/12/17 19:03:49;;;;;;;2.33;1.88;;;;;;;-2.62;94.44;102853.50;5076124;27;100995;-31
2022/12/17 19:06:15;;;;;;;0.45;0.45;;;;;;;-2.65;94.33;102856.94;5094712;27;97421;-32
2022/12/17 19:08:40;;;;;;;1.13;1.02;;;;;;;-2.61;94.56;102856.16;5094570;27;96605;-31
2022/12/17 19:11:08;;;;;;;1.45;1.35;;;;;;;-2.63;94.08;102859.66;5094484;27;96818;-32
2022/12/17 19:13:34;;;;;;;1.65;1.08;;;;;;;-2.68;94.15;102867.47;5075892;27;101079;-31
2022/12/17 19:16:24;;;;;;;0.73;0.73;;;;;;;-2.66;94.44;102862.22;5076055;27;101024;-31
2022/12/17 19:18:55;;;;;;;1.15;1.05;;;;;;;-2.68;94.56;102866.59;5081677;27;96846;-31
2022/12/17 19:21:21;;;;;;;1.27;1.05;;;;;;;-2.70;94.13;102877.16;5075829;27;96727;-32
2022/12/17 19:23:48;;;;;;;0.88;0.68;;;;;;;-2.74;94.00;102877.94;5075195;27;99495;-32
2022/12/17 19:26:16;;;;;;;1.55;1.02;;;;;;;-2.79;94.37;102876.91;5075591;27;101095;-31
2022/12/17 19:28:45;;;;;;;0.85;0.82;;;;;;;-2.77;94.15;102881.38;5075763;27;96741;-32
2022/12/17 19:31:12;;;;;;;2.05;1.15;;;;;;;-2.78;94.08;102890.22;5075449;27;96927;-33
2022/12/17 19:33:37;;;;;;;1.02;0.70;;;;;;;-2.79;94.19;102885.78;5075931;27;100689;-31
2022/12/17 19:36:09;;;;;;;1.33;1.23;;;;;;;-2.86;94.95;102878.53;5094170;27;98022;-31
2022/12/17 19:38:35;;;;;;;0.47;0.38;;;;;;;-2.87;94.81;102879.38;5075757;27;96607;-31
2022/12/17 19:41:05;;;;;;;1.25;1.17;;;;;;;-2.86;94.74;102878.53;5094673;27;96787;-31
2022/12/17 19:43:32;;;;;;;2.63;2.22;;;;;;;-2.89;94.47;102888.13;5075434;27;101439;-30
2022/12/17 19:46:02;;;;;;;1.05;0.85;;;;;;;-2.93;94.46;102880.94;5075246;27;100847;-31
2022/12/17 19:48:29;;;;;;;0.93;0.82;;;;;;;-2.87;94.58;102887.31;5074949;27;97360;-31
2022/12/17 19:50:56;;;;;;;1.15;1.08;;;;;;;-2.85;94.63;102882.06;5075306;27;96854;-32
2022/12/17 19:53:25;;;;;;;0.88;0.75;;;;;;;-2.87;94.54;102881.13;5075211;27;100989;-31
2022/12/17 19:55:51;;;;;;;0.38;0.38;;;;;;;-2.84;94.06;102886.50;5075159;27;101455;-31
2022/12/17 19:58:16;;;;;;;0.43;0.40;;;;;;;-2.82;94.22;102879.50;5093885;27;96611;-31
2022/12/17 20:00:41;;;;;;;0.30;0.30;;;;;;;-2.83;94.00;102889.19;5094009;27;96843;-30
2022/12/17 20:03:07;;;;;;;2.75;1.23;;;;;;;-2.85;94.02;102890.91;5093849;27;97923;-32
2022/12/17 20:05:32;;;;;;;0.32;0.32;;;;;;;-2.89;94.08;102889.03;5094508;27;96654;-31
2022/12/17 20:07:58;;;;;;;2.15;1.83;;;;;;;-2.92;94.13;102877.47;5093938;27;96674;-31
2022/12/17 20:10:24;;;;;;;0.28;0.28;;;;;;;-2.91;94.05;102879.25;5093567;27;96705;-31
2022/12/17 20:12:49;;;;;;;1.08;1.05;;;;;;;-2.92;94.12;102883.66;5093082;27;99870;-32
2022/12/17 20:15:15;;;;;;;1.23;1.08;;;;;;;-2.91;94.08;102884.53;5093659;27;97876;-33
2022/12/17 20:17:40;;;;;;;0.47;0.47;;;;;;;-2.92;94.15;102883.66;5092938;27;96544;-31
2022/12/17 20:20:06;;;;;;;1.88;1.35;;;;;;;-3.00;94.21;102896.72;5093333;27;96954;-32
2022/12/17 20:22:31;;;;;;;1.08;0.88;;;;;;;-3.09;94.12;102887.59;5093537;27;97378;-31
2022/12/17 20:24:57;;;;;;;1.13;0.80;;;;;;;-3.12;94.50;102895.44;5092835;27;97792;-30
2022/12/17 20:27:22;;;;;;;1.75;1.17;;;;;;;-3.15;94.31;102896.25;5074687;27;96757;-32
2022/12/17 20:29:48;;;;;;;0.30;0.30;;;;;;;-3.10;94.61;102894.66;5093941;27;96821;-31
2022/12/17 20:32:14;;;;;;;0.25;0.25;;;;;;;-3.13;94.58;102889.25;5093129;27;99266;-33
2022/12/17 20:34:40;;;;;;;2.78;1.48;;;;;;;-3.11;94.50;102894.59;5074661;27;100932;-31
2022/12/17 20:37:05;;;;;;;0.85;0.65;;;;;;;-3.13;94.47;102889.25;5092802;27;96632;-33
2022/12/17 20:39:31;;;;;;;0.85;0.85;;;;;;;-3.14;94.48;102890.13;5093644;27;96812;-31
2022/12/17 20:41:56;;;;;;;1.27;0.82;;;;;;;-3.15;94.34;102890.97;5074171;27;98835;-31
2022/12/17 20:44:22;;;;;;;1.02;0.17;;;;;;;-3.14;94.70;102886.59;5092954;27;99465;-31
2022/12/17 20:46:47;;;;;;;1.17;1.05;;;;;;;-3.16;94.43;102890.94;5093209;27;96523;-31
2022/12/17 20:49:13;;;;;;;0.30;0.30;;;;;;;-3.15;94.42;102904.22;5093034;27;96866;-31
2022/12/17 20:51:39;;;;;;;1.38;1.27;;;;;;;-3.13;94.39;102898.97;5074358;27;100994;-31
2022/12/17 20:54:04;;;;;;;0.30;0.22;;;;;;;-3.07;94.59;102899.16;5093243;27;99492;-31
2022/12/17 20:56:31;;;;;;;0.70;0.43;;;;;;;-3.00;94.52;102909.97;5092779;27;96449;-32
2022/12/17 20:59:03;;;;;;;2.78;1.25;;;;;;;-3.00;94.02;102917.91;5074645;27;96589;-31
2022/12/17 21:01:31;;;;;;;0.98;0.88;;;;;;;-3.05;93.83;102915.97;5092574;27;98213;-31
2022/12/17 21:03:57;;;;;;;0.65;0.57;;;;;;;-3.07;94.10;102915.94;5074145;27;101184;-31
2022/12/17 21:06:25;;;;;;;1.33;1.23;;;;;;;-3.09;93.95;102907.06;5074541;27;96558;-33
2022/12/17 21:08:53;;;;;;;1.17;1.08;;;;;;;-3.12;93.59;102906.03;5074459;27;96812;-33
2022/12/17 21:11:24;;;;;;;1.65;1.25;;;;;;;-3.14;93.77;102907.78;5074079;27;101411;-31
2022/12/17 21:13:49;;;;;;;1.67;1.23;;;;;;;-3.22;94.01;102900.53;5093123;27;97935;-31
2022/12/17 21:16:27;;;;;;;3.08;2.25;;;;;;;-3.21;94.27;102917.31;5093042;27;96963;-31
2022/12/17 21:18:55;;;;;;;1.10;1.05;;;;;;;-3.21;93.99;102925.25;5093250;27;96867;-31
2022/12/17 21:21:24;;;;;;;2.05;1.17;;;;;;;-3.27;94.46;102925.06;5074039;27;101079;-32
2022/12/17 21:23:50;;;;;;;2.28;1.08;;;;;;;-3.30;94.50;102927.63;5073666;27;101244;-31
2022/12/17 21:26:18;;;;;;;1.85;1.30;;;;;;;-3.27;94.37;102938.31;5073641;27;97528;-31
2022/12/17 21:28:46;;;;;;;0.88;0.85;;;;;;;-3.25;94.69;102934.84;5093085;27;96801;-31
2022/12/17 21:31:18;;;;;;;0.43;0.43;;;;;;;-3.18;94.34;102943.88;5077429;27;99494;-32
2022/12/17 21:33:46;;;;;;;0.50;0.50;;;;;;;-3.17;94.52;102940.41;5077377;27;100919;-31
2022/12/17 21:36:12;;;;;;;0.57;0.35;;;;;;;-3.14;94.02;102944.88;5077515;27;96733;-31
2022/12/17 21:38:37;;;;;;;0.95;0.43;;;;;;;-3.10;93.79;102945.03;5077557;27;96821;-32
2022/12/17 21:41:05;;;;;;;0.93;0.93;;;;;;;-3.16;93.56;102946.59;5096069;27;97935;-32
2022/12/17 21:43:31;;;;;;;1.38;1.10;;;;;;;-3.23;93.88;102950.81;5096231;27;97947;-31
2022/12/17 21:45:56;;;;;;;1.55;1.15;;;;;;;-3.22;93.65;102953.50;5096187;27;96559;-31
2022/12/17 21:48:22;;;;;;;0.95;0.82;;;;;;;-3.20;93.51;102954.44;5095829;27;96647;-32
2022/12/17 21:50:48;;;;;;;0.85;0.85;;;;;;;-3.28;93.84;102947.13;5095307;27;98004;-32
2022/12/17 21:53:14;;;;;;;1.23;1.13;;;;;;;-3.25;93.83;102960.47;5095856;27;97826;-32
2022/12/17 21:55:39;;;;;;;0.75;0.60;;;;;;;-3.33;93.98;102959.34;5095755;27;96666;-32
2022/12/17 21:58:05;;;;;;;0.20;0.20;;;;;;;-3.36;94.17;102961.88;5095684;27;96962;-31
2022/12/17 22:00:30;;;;;;;0.17;0.17;;;;;;;-3.40;94.13;102954.72;5095692;27;97925;-31
2022/12/17 22:02:56;;;;;;;0.35;0.30;;;;;;;-3.43;94.58;102959.06;5095606;27;97830;-31
2022/12/17 22:05:21;;;;;;;1.20;0.95;;;;;;;-3.45;94.34;102965.19;5095730;27;96740;-32
2022/12/17 22:07:47;;;;;;;1.95;1.20;;;;;;;-3.46;94.64;102960.72;5096289;27;96749;-32
2022/12/17 22:10:12;;;;;;;5.70;0.85;;;;;;;-3.45;94.82;102962.53;5095683;27;97959;-32
2022/12/17 22:15:22;;;;;;;1.13;0.88;;;;;;;-3.45;94.91;102974.00;5095219;27;97987;-31
2022/12/17 22:17:47;;;;;;;0.10;0.10;;;;;;;-3.38;94.66;102977.75;5095365;27;96773;-32
2022/12/17 22:20:15;;;;;;;0.63;0.57;;;;;;;-3.33;94.99;102973.50;5095435;27;98034;-31
2022/12/17 22:22:41;;;;;;;0.82;0.80;;;;;;;-3.28;94.43;102978.94;5095085;27;99400;-31
2022/12/17 22:25:08;;;;;;;1.10;1.00;;;;;;;-3.26;94.02;102971.94;5076197;27;96883;-32
2022/12/17 22:27:34;;;;;;;0.85;0.55;;;;;;;-3.28;94.21;102968.31;5076580;27;96919;-31
2022/12/17 22:32:58;;;;;;;0.55;0.52;;;;;;;-3.32;94.40;102969.09;5077632;27;97070;-33
2022/12/17 22:35:25;;;;;;;0.22;0.22;;;;;;;-3.32;94.54;102967.31;5095376;27;96607;-31
2022/12/17 22:37:51;;;;;;;0.40;0.40;;;;;;;-3.31;94.61;102958.53;5076797;27;96754;-32
2022/12/17 22:40:19;;;;;;;0.73;0.47;;;;;;;-3.32;94.39;102958.47;5075885;27;98734;-33
2022/12/17 22:45:28;;;;;;;2.50;0.88;;;;;;;-3.27;94.13;102959.50;5093187;27;96458;-32
2022/12/17 22:47:54;;;;;;;0.70;0.57;;;;;;;-3.27;94.14;102949.81;5095599;27;96690;-31
2022/12/17 22:50:19;;;;;;;0.35;0.35;;;;;;;-3.24;94.42;102944.63;5094630;27;107329;-31
2022/12/17 22:52:44;;;;;;;1.23;1.13;;;;;;;-3.27;94.21;102943.63;5094893;27;98047;-31
2022/12/17 22:55:10;;;;;;;0.45;0.45;;;;;;;-3.26;94.00;102956.91;5095102;27;96455;-31
2022/12/17 22:57:35;;;;;;;0.22;0.22;;;;;;;-3.22;94.47;102963.19;5095103;27;96901;-32
2022/12/17 23:00:00;;;;;;;0.77;0.52;;;;;;;-3.22;94.15;102974.72;5094718;27;105636;-31
2022/12/17 23:02:25;;;;;;;0.47;0.47;;;;;;;-3.27;94.49;102962.16;5094529;27;99124;-31
2022/12/17 23:04:51;;;;;;;1.50;1.17;;;;;;;-3.30;94.48;102967.38;5094189;27;96488;-32
2022/12/17 23:07:16;;;;;;;1.27;1.10;;;;;;;-3.36;94.16;102961.88;5076052;27;96921;-32
2022/12/17 23:09:41;;;;;;;0.25;0.20;;;;;;;-3.43;94.32;102959.06;5094571;27;97574;-32
2022/12/17 23:14:51;;;;;;;0.32;0.32;;;;;;;-3.43;94.70;102967.03;5095155;27;96538;-31
2022/12/17 23:17:16;;;;;;;1.00;0.80;;;;;;;-3.35;94.93;102967.25;5094493;27;97094;-31
2022/12/17 23:19:41;;;;;;;1.65;1.35;;;;;;;-3.32;94.86;102971.72;5094061;27;102514;-31
2022/12/17 23:22:07;;;;;;;1.63;0.65;;;;;;;-3.28;94.64;102978.94;5076044;27;101044;-31
2022/12/17 23:24:32;;;;;;;0.65;0.65;;;;;;;-3.31;94.87;102973.50;5093444;27;104612;-31
2022/12/17 23:26:57;;;;;;;1.27;0.98;;;;;;;-3.34;94.69;102971.69;5094171;27;96820;-31
2022/12/17 23:29:23;;;;;;;0.68;0.55;;;;;;;-3.38;94.81;102963.59;5093999;27;97429;-33
2022/12/17 23:31:48;;;;;;;0.50;0.47;;;;;;;-3.38;95.13;102975.09;5094427;27;97901;-32
2022/12/17 23:34:14;;;;;;;0.32;0.30;;;;;;;-3.36;94.97;102961.88;5094218;27;96538;-33
2022/12/17 23:36:39;;;;;;;0.30;0.30;;;;;;;-3.31;95.37;102957.63;5094564;27;96821;-31
2022/12/17 23:39:04;;;;;;;0.40;0.40;;;;;;;-3.30;94.72;102944.44;5093493;27;109634;-31
2022/12/17 23:41:31;;;;;;;2.90;2.10;;;;;;;-3.26;94.80;102946.31;5093872;27;99603;-32
2022/12/17 23:43:57;;;;;;;0.95;0.80;;;;;;;-3.35;94.72;102934.56;5075557;27;96739;-32
2022/12/17 23:46:25;;;;;;;0.50;0.50;;;;;;;-3.44;94.97;102933.41;5075967;27;96881;-34
2022/12/17 23:48:51;;;;;;;0.90;0.82;;;;;;;-3.50;95.28;102930.59;5075383;27;100811;-31
2022/12/17 23:51:19;;;;;;;0.45;0.45;;;;;;;-3.52;94.96;102939.34;5074723;27;101017;-31
2022/12/17 23:53:45;;;;;;;0.80;0.80;;;;;;;-3.55;95.14;102941.88;5074459;27;96947;-31
2022/12/17 23:56:16;;;;;;;1.15;0.75;;;;;;;-3.58;95.10;102949.75;5094066;27;96632;-32
2022/12/17 23:58:43;;;;;;;0.90;0.77;;;;;;;-3.58;95.44;102940.03;5075189;27;100930;-31
